createdAt,value
2018-02-01T00:00:13.527Z,0.80
2018-02-01T00:02:41.043Z,0.80
2018-02-01T00:05:08.545Z,0.62
2018-02-01T00:07:36.043Z,1.05
2018-02-01T00:10:03.535Z,0.82
2018-02-01T00:12:31.062Z,0.68
2018-02-01T00:14:58.590Z,0.60
2018-02-01T00:17:26.093Z,0.57
2018-02-01T00:19:53.761Z,0.80
2018-02-01T00:25:32.213Z,0.40
2018-02-01T00:28:00.469Z,0.37
2018-02-01T00:30:27.972Z,0.30
2018-02-01T00:32:55.443Z,0.55
2018-02-01T00:35:22.891Z,0.52
2018-02-01T00:37:50.439Z,0.37
2018-02-01T00:40:17.900Z,0.40
2018-02-01T00:42:45.359Z,0.40
2018-02-01T00:45:12.792Z,0.60
2018-02-01T00:47:40.254Z,0.50
2018-02-01T00:50:08.498Z,0.30
2018-02-01T00:52:39.898Z,0.50
2018-02-01T00:55:07.410Z,0.50
2018-02-01T00:57:34.907Z,0.50
2018-02-01T01:00:03.110Z,0.60
2018-02-01T01:02:30.589Z,0.52
2018-02-01T01:04:58.229Z,0.40
2018-02-01T01:07:25.744Z,0.75
2018-02-01T01:09:53.212Z,0.50
2018-02-01T01:12:20.673Z,0.40
2018-02-01T01:14:48.298Z,1.05
2018-02-01T01:17:15.784Z,1.15
2018-02-01T01:19:43.264Z,0.57
2018-02-01T01:22:11.520Z,0.65
2018-02-01T01:24:39.677Z,0.60
2018-02-01T01:27:07.137Z,0.75
2018-02-01T01:29:34.609Z,0.90
2018-02-01T01:32:02.096Z,0.95
2018-02-01T01:34:29.567Z,0.68
2018-02-01T01:36:57.040Z,0.50
2018-02-01T01:39:25.307Z,1.27
2018-02-01T01:41:52.824Z,0.65
2018-02-01T01:44:20.404Z,1.00
2018-02-01T01:46:47.919Z,0.77
2018-02-01T01:49:15.814Z,0.62
2018-02-01T01:51:43.322Z,0.52
2018-02-01T01:54:10.816Z,0.40
2018-02-01T01:56:38.887Z,0.60
2018-02-01T01:59:06.356Z,0.60
2018-02-01T02:01:33.823Z,0.60
2018-02-01T02:04:01.269Z,0.60
2018-02-01T02:06:28.860Z,0.60
2018-02-01T02:08:56.367Z,0.60
2018-02-01T02:11:23.827Z,1.30
2018-02-01T02:13:51.271Z,0.93
2018-02-01T02:16:18.877Z,0.80
2018-02-01T02:18:46.335Z,1.00
2018-02-01T02:21:13.810Z,0.73
2018-02-01T02:23:41.967Z,0.93
2018-02-01T02:26:09.424Z,0.90
2018-02-01T02:28:36.864Z,0.60
2018-02-01T02:31:04.399Z,0.65
2018-02-01T02:33:31.859Z,0.50
2018-02-01T02:35:59.324Z,0.70
2018-02-01T02:38:26.757Z,0.52
2018-02-01T02:40:54.220Z,0.70
2018-02-01T02:43:21.693Z,0.80
2018-02-01T02:45:49.163Z,1.08
2018-02-01T02:48:16.610Z,1.17
2018-02-01T02:50:44.088Z,1.00
2018-02-01T02:53:11.531Z,0.90
2018-02-01T02:55:38.981Z,0.65
2018-02-01T02:58:06.435Z,0.75
2018-02-01T03:00:33.894Z,1.02
2018-02-01T03:03:01.350Z,0.85
2018-02-01T03:05:28.817Z,0.88
2018-02-01T03:07:56.375Z,0.93
2018-02-01T03:10:23.879Z,0.80
2018-02-01T03:12:51.366Z,0.80
2018-02-01T03:15:19.614Z,0.60
2018-02-01T03:17:47.094Z,1.00
2018-02-01T03:20:14.567Z,1.00
2018-02-01T03:22:42.026Z,0.60
2018-02-01T03:25:09.487Z,0.60
2018-02-01T03:27:36.945Z,0.85
2018-02-01T03:30:04.425Z,0.70
2018-02-01T03:32:32.653Z,0.88
2018-02-01T03:35:00.181Z,1.00
2018-02-01T03:37:27.622Z,1.30
2018-02-01T03:39:55.089Z,1.52
2018-02-01T03:42:22.549Z,1.60
2018-02-01T03:44:50.011Z,1.33
2018-02-01T03:47:17.470Z,1.70
2018-02-01T03:49:44.953Z,1.33
2018-02-01T03:52:12.409Z,1.52
2018-02-01T03:54:39.869Z,1.75
2018-02-01T03:57:07.349Z,1.62
2018-02-01T03:59:34.880Z,1.70
2018-02-01T04:02:02.411Z,1.20
2018-02-01T04:04:29.868Z,1.67
2018-02-01T04:06:57.431Z,1.92
2018-02-01T04:09:24.938Z,1.73
2018-02-01T04:11:53.228Z,1.95
2018-02-01T04:14:20.672Z,2.00
2018-02-01T04:16:48.930Z,1.90
2018-02-01T04:19:16.614Z,2.37
2018-02-01T04:21:44.084Z,2.20
2018-02-01T04:24:11.516Z,2.60
2018-02-01T04:26:39.751Z,2.55
2018-02-01T04:29:07.212Z,2.47
2018-02-01T04:31:34.687Z,2.97
2018-02-01T04:34:02.754Z,2.72
2018-02-01T04:36:30.212Z,2.95
2018-02-01T04:38:58.519Z,2.65
2018-02-01T04:41:26.722Z,2.20
2018-02-01T04:43:54.799Z,2.75
2018-02-01T04:46:22.227Z,2.40
2018-02-01T04:48:50.176Z,2.50
2018-02-01T04:51:18.490Z,1.95
2018-02-01T04:53:45.962Z,2.10
2018-02-01T04:56:13.486Z,2.00
2018-02-01T04:58:40.961Z,2.12
2018-02-01T05:01:08.488Z,2.35
2018-02-01T05:03:36.003Z,2.00
2018-02-01T05:06:03.454Z,2.97
2018-02-01T05:08:30.896Z,1.70
2018-02-01T05:10:58.454Z,3.20
2018-02-01T05:13:25.896Z,1.62
2018-02-01T05:15:53.367Z,1.75
2018-02-01T05:18:20.809Z,1.80
2018-02-01T05:20:48.303Z,1.00
2018-02-01T05:23:15.763Z,1.73
2018-02-01T05:25:43.251Z,1.48
2018-02-01T05:28:11.491Z,1.40
2018-02-01T05:30:38.980Z,1.75
2018-02-01T05:33:07.198Z,1.83
2018-02-01T05:35:34.676Z,2.55
2018-02-01T05:38:02.328Z,1.40
2018-02-01T05:40:29.811Z,1.75
2018-02-01T05:42:57.257Z,1.40
2018-02-01T05:45:24.736Z,1.70
2018-02-01T05:47:52.196Z,1.87
2018-02-01T05:50:19.706Z,1.60
2018-02-01T05:52:47.150Z,1.98
2018-02-01T05:55:14.615Z,1.95
2018-02-01T05:57:42.115Z,2.10
2018-02-01T06:00:09.635Z,2.20
2018-02-01T06:02:37.145Z,1.55
2018-02-01T06:05:04.600Z,1.90
2018-02-01T06:07:32.867Z,2.05
2018-02-01T06:10:01.103Z,1.65
2018-02-01T06:12:28.586Z,1.67
2018-02-01T06:14:56.040Z,2.00
2018-02-01T06:17:24.265Z,1.67
2018-02-01T06:19:51.776Z,2.05
2018-02-01T06:22:19.993Z,2.10
2018-02-01T06:24:47.464Z,2.60
2018-02-01T06:27:14.931Z,2.45
2018-02-01T06:39:22.391Z,2.72
2018-02-01T06:41:49.846Z,2.20
2018-02-01T06:44:17.344Z,1.98
2018-02-01T06:46:44.868Z,2.33
2018-02-01T06:49:12.373Z,2.78
2018-02-01T06:51:39.900Z,2.50
2018-02-01T06:54:08.185Z,2.17
2018-02-01T06:56:35.973Z,2.50
2018-02-01T06:59:03.495Z,1.90
2018-02-01T07:01:31.610Z,2.60
2018-02-01T07:03:59.046Z,2.10
2018-02-01T07:06:26.584Z,2.60
2018-02-01T07:08:54.035Z,2.20
2018-02-01T07:11:22.300Z,2.60
2018-02-01T07:13:49.818Z,3.28
2018-02-01T07:16:17.268Z,2.90
2018-02-01T07:18:44.732Z,3.60
2018-02-01T07:21:12.693Z,2.92
2018-02-01T07:23:40.162Z,3.50
2018-02-01T07:26:07.608Z,3.37
2018-02-01T07:28:35.088Z,4.50
2018-02-01T07:31:02.617Z,3.92
2018-02-01T07:33:30.073Z,4.30
2018-02-01T07:35:57.549Z,3.75
2018-02-01T07:38:25.019Z,4.60
2018-02-01T07:40:52.531Z,3.10
2018-02-01T07:43:19.962Z,3.90
2018-02-01T07:45:53.012Z,4.00
2018-02-01T07:48:20.505Z,4.12
2018-02-01T07:50:48.751Z,3.87
2018-02-01T07:53:16.613Z,4.78
2018-02-01T07:55:44.160Z,4.35
2018-02-01T07:58:11.619Z,4.55
2018-02-01T08:00:39.134Z,6.75
2018-02-01T08:03:06.596Z,5.62
2018-02-01T08:05:34.128Z,4.37
2018-02-01T08:08:02.446Z,4.72
2018-02-01T08:10:29.946Z,4.90
2018-02-01T08:12:57.409Z,3.97
2018-02-01T08:15:24.844Z,4.20
2018-02-01T08:17:52.291Z,3.47
2018-02-01T08:20:19.747Z,5.43
2018-02-01T08:22:47.232Z,4.65
2018-02-01T08:25:15.508Z,3.60
2018-02-01T08:27:42.966Z,4.00
2018-02-01T08:30:11.202Z,3.78
2018-02-01T08:32:38.641Z,3.83
2018-02-01T08:35:06.106Z,2.87
2018-02-01T08:37:33.578Z,3.78
2018-02-01T08:40:01.031Z,3.20
2018-02-01T08:42:28.488Z,3.28
2018-02-01T08:44:55.929Z,3.03
2018-02-01T08:47:23.388Z,2.40
2018-02-01T08:49:50.864Z,2.85
2018-02-01T08:52:18.296Z,2.85
2018-02-01T08:54:45.768Z,2.53
2018-02-01T08:57:13.270Z,2.60
2018-02-01T08:59:41.484Z,2.85
2018-02-01T09:02:08.947Z,2.62
2018-02-01T09:04:36.493Z,2.95
2018-02-01T09:07:03.951Z,2.55
2018-02-01T09:09:31.409Z,2.50
2018-02-01T09:11:58.871Z,2.50
2018-02-01T09:14:27.044Z,1.95
2018-02-01T09:16:54.517Z,2.40
2018-02-01T09:19:22.081Z,2.10
2018-02-01T09:21:49.535Z,2.60
2018-02-01T09:24:17.016Z,2.70
2018-02-01T09:26:44.480Z,3.62
2018-02-01T09:29:12.718Z,2.55
2018-02-01T09:31:40.153Z,2.40
2018-02-01T09:34:07.627Z,2.75
2018-02-01T09:36:35.082Z,2.60
2018-02-01T09:39:03.314Z,2.50
2018-02-01T09:41:30.758Z,2.37
2018-02-01T09:43:58.996Z,2.33
2018-02-01T09:46:26.457Z,2.15
2018-02-01T09:48:53.907Z,2.10
2018-02-01T09:51:21.368Z,1.52
2018-02-01T09:53:48.819Z,1.87
2018-02-01T09:56:16.321Z,2.28
2018-02-01T09:58:43.758Z,2.17
2018-02-01T10:01:11.999Z,2.53
2018-02-01T10:03:39.473Z,1.73
2018-02-01T10:06:06.933Z,1.90
2018-02-01T10:08:34.396Z,1.95
2018-02-01T10:11:01.867Z,1.95
2018-02-01T10:13:29.299Z,1.70
2018-02-01T10:15:56.843Z,1.58
2018-02-01T10:18:24.352Z,1.65
2018-02-01T10:20:51.835Z,1.80
2018-02-01T10:23:19.266Z,1.50
2018-02-01T10:25:46.715Z,1.83
2018-02-01T10:28:14.198Z,1.85
2018-02-01T10:30:41.831Z,1.50
2018-02-01T10:33:09.293Z,1.73
2018-02-01T10:35:36.750Z,1.95
2018-02-01T10:38:04.229Z,1.35
2018-02-01T10:40:31.686Z,1.70
2018-02-01T10:42:59.209Z,1.40
2018-02-01T10:45:26.647Z,2.33
2018-02-01T10:47:54.912Z,1.90
2018-02-01T10:50:22.374Z,1.75
2018-02-01T10:52:50.231Z,2.03
2018-02-01T10:55:18.621Z,1.50
2018-02-01T10:57:46.928Z,1.58
2018-02-01T11:00:14.473Z,1.90
2018-02-01T11:02:42.639Z,1.80
2018-02-01T11:05:10.868Z,2.15
2018-02-01T11:07:38.346Z,1.80
2018-02-01T11:10:05.810Z,1.50
2018-02-01T11:12:33.371Z,1.23
2018-02-01T11:15:00.877Z,2.00
2018-02-01T11:17:28.331Z,1.60
2018-02-01T11:19:55.774Z,1.50
2018-02-01T11:22:23.260Z,1.98
2018-02-01T11:24:51.643Z,1.75
2018-02-01T11:27:23.218Z,1.50
2018-02-01T11:29:50.651Z,2.20
2018-02-01T11:32:18.151Z,1.80
2018-02-01T11:34:46.401Z,1.73
2018-02-01T11:37:13.860Z,1.73
2018-02-01T11:39:41.350Z,1.85
2018-02-01T11:42:09.580Z,2.60
2018-02-01T11:44:37.013Z,1.50
2018-02-01T11:47:04.550Z,1.67
2018-02-01T11:49:32.094Z,1.33
2018-02-01T11:51:59.539Z,1.20
2018-02-01T11:54:27.756Z,1.70
2018-02-01T11:56:55.207Z,2.10
2018-02-01T11:59:22.674Z,1.23
2018-02-01T12:01:50.290Z,1.48
2018-02-01T12:04:18.534Z,1.10
2018-02-01T12:06:46.036Z,1.25
2018-02-01T12:09:13.559Z,1.00
2018-02-01T12:11:41.898Z,1.35
2018-02-01T12:14:09.331Z,1.35
2018-02-01T12:16:37.391Z,1.62
2018-02-01T12:19:04.851Z,1.12
2018-02-01T12:21:32.451Z,1.00
2018-02-01T12:24:00.235Z,2.00
2018-02-01T12:26:27.713Z,1.58
2018-02-01T12:28:55.192Z,1.90
2018-02-01T12:31:22.662Z,2.60
2018-02-01T12:33:50.121Z,2.00
2018-02-01T12:36:17.565Z,1.65
2018-02-01T12:38:45.019Z,1.45
2018-02-01T12:41:12.482Z,2.05
2018-02-01T12:43:39.955Z,1.40
2018-02-01T12:46:07.424Z,1.50
2018-02-01T12:48:34.897Z,1.30
2018-02-01T12:51:02.497Z,1.40
2018-02-01T12:53:29.972Z,1.10
2018-02-01T12:55:57.439Z,1.65
2018-02-01T12:58:25.642Z,1.70
2018-02-01T13:00:53.108Z,1.55
2018-02-01T13:03:20.541Z,1.62
2018-02-01T13:05:47.999Z,1.70
2018-02-01T13:08:15.488Z,1.70
2018-02-01T13:10:43.675Z,1.12
2018-02-01T13:13:11.153Z,1.20
2018-02-01T13:15:38.621Z,1.40
2018-02-01T13:18:06.083Z,1.50
2018-02-01T13:20:33.525Z,1.35
2018-02-01T13:23:00.986Z,1.40
2018-02-01T13:25:28.450Z,2.10
2018-02-01T13:27:55.922Z,2.10
2018-02-01T13:30:23.375Z,1.40
2018-02-01T13:32:51.008Z,1.42
2018-02-01T13:35:18.560Z,1.67
2018-02-01T13:37:46.022Z,1.62
2018-02-01T13:40:13.478Z,1.85
2018-02-01T13:42:40.952Z,2.40
2018-02-01T13:45:08.424Z,1.45
2018-02-01T13:47:35.883Z,1.60
2018-02-01T13:50:03.311Z,1.40
2018-02-01T13:52:30.796Z,1.83
2018-02-01T13:54:58.307Z,1.10
2018-02-01T13:57:25.778Z,1.52
2018-02-01T13:59:53.249Z,1.75
2018-02-01T14:02:21.458Z,1.85
2018-02-01T14:04:49.672Z,1.60
2018-02-01T14:07:17.132Z,1.60
2018-02-01T14:09:44.607Z,1.40
2018-02-01T14:12:12.086Z,1.80
2018-02-01T14:14:39.547Z,1.45
2018-02-01T14:17:07.012Z,1.60
2018-02-01T14:19:34.451Z,1.50
2018-02-01T14:22:02.556Z,2.03
2018-02-01T14:24:30.012Z,1.17
2018-02-01T14:26:57.446Z,1.60
2018-02-01T14:29:25.022Z,1.20
2018-02-01T14:31:53.228Z,1.37
2018-02-01T14:34:20.680Z,1.90
2018-02-01T14:36:48.155Z,1.33
2018-02-01T14:39:15.579Z,1.00
2018-02-01T14:41:43.044Z,1.40
2018-02-01T14:44:10.526Z,1.08
2018-02-01T14:46:38.031Z,1.00
2018-02-01T14:49:05.480Z,1.65
2018-02-01T14:51:33.706Z,1.67
2018-02-01T14:54:01.160Z,1.10
2018-02-01T14:56:28.624Z,1.52
2018-02-01T14:58:59.727Z,1.33
2018-02-01T15:01:27.207Z,1.67
2018-02-01T15:03:54.659Z,1.58
2018-02-01T15:06:22.988Z,1.25
2018-02-01T15:08:51.206Z,1.00
2018-02-01T15:11:18.820Z,1.70
2018-02-01T15:13:46.883Z,1.33
2018-02-01T15:16:14.343Z,1.33
2018-02-01T15:18:42.597Z,1.95
2018-02-01T15:21:10.048Z,1.40
2018-02-01T15:23:37.566Z,1.60
2018-02-01T15:26:05.051Z,1.60
2018-02-01T15:28:32.516Z,1.33
2018-02-01T15:30:59.986Z,1.67
2018-02-01T15:33:27.464Z,1.70
2018-02-01T15:35:54.948Z,1.30
2018-02-01T15:38:22.442Z,1.40
2018-02-01T15:40:49.921Z,1.85
2018-02-01T15:43:17.387Z,1.33
2018-02-01T15:45:45.622Z,1.95
2018-02-01T15:48:13.115Z,1.40
2018-02-01T15:50:40.582Z,1.60
2018-02-01T15:53:08.844Z,2.10
2018-02-01T15:55:36.308Z,1.80
2018-02-01T15:58:04.521Z,1.55
2018-02-01T16:00:32.078Z,1.55
2018-02-01T16:02:59.560Z,1.15
2018-02-01T16:05:27.065Z,1.02
2018-02-01T16:07:55.286Z,1.30
2018-02-01T16:10:23.639Z,1.30
2018-02-01T16:12:51.088Z,1.27
2018-02-01T16:15:18.552Z,1.23
2018-02-01T16:17:46.030Z,1.87
2018-02-01T16:20:13.536Z,1.20
2018-02-01T16:22:41.807Z,1.80
2018-02-01T16:25:09.268Z,1.30
2018-02-01T16:27:37.532Z,1.77
2018-02-01T16:30:05.026Z,1.70
2018-02-01T16:32:32.529Z,1.90
2018-02-01T16:34:59.970Z,1.90
2018-02-01T16:37:27.426Z,1.37
2018-02-01T16:39:55.646Z,1.62
2018-02-01T16:42:23.161Z,1.90
2018-02-01T16:44:50.594Z,1.65
2018-02-01T16:47:18.036Z,2.53
2018-02-01T16:49:45.538Z,1.42
2018-02-01T16:52:13.116Z,2.00
2018-02-01T16:54:40.621Z,1.60
2018-02-01T16:57:08.090Z,2.42
2018-02-01T16:59:35.653Z,1.50
2018-02-01T17:02:03.097Z,1.95
2018-02-01T17:04:30.559Z,2.20
2018-02-01T17:06:57.986Z,1.85
2018-02-01T17:09:25.477Z,2.20
2018-02-01T17:11:52.932Z,1.37
2018-02-01T17:14:20.535Z,1.95
2018-02-01T17:16:48.747Z,1.70
2018-02-01T17:19:16.217Z,1.70
2018-02-01T17:21:43.703Z,2.10
2018-02-01T17:24:11.143Z,1.85
2018-02-01T17:26:38.637Z,1.50
2018-02-01T17:29:06.877Z,1.45
2018-02-01T17:31:38.325Z,0.95
2018-02-01T17:34:05.779Z,1.00
2018-02-01T17:36:33.278Z,1.25
2018-02-01T17:39:00.737Z,1.80
2018-02-01T17:41:28.256Z,1.00
2018-02-01T17:43:55.734Z,1.42
2018-02-01T17:46:24.061Z,1.65
2018-02-01T17:48:52.228Z,1.37
2018-02-01T17:51:20.438Z,1.60
2018-02-01T17:53:48.711Z,1.10
2018-02-01T17:56:16.154Z,1.33
2018-02-01T17:58:43.631Z,1.58
2018-02-01T18:01:11.129Z,1.10
2018-02-01T18:03:38.614Z,1.20
2018-02-01T18:06:06.052Z,1.33
2018-02-01T18:08:33.519Z,1.40
2018-02-01T18:11:01.018Z,1.20
2018-02-01T18:13:28.534Z,2.62
2018-02-01T18:15:55.983Z,2.15
2018-02-01T18:18:23.467Z,2.53
2018-02-01T18:20:50.916Z,2.20
2018-02-01T18:23:18.380Z,1.60
2018-02-01T18:25:45.836Z,1.15
2018-02-01T18:28:13.332Z,1.08
2018-02-01T18:30:40.777Z,1.20
2018-02-01T18:33:08.276Z,1.35
2018-02-01T18:35:35.723Z,1.20
2018-02-01T18:38:03.189Z,2.60
2018-02-01T18:40:30.713Z,2.20
2018-02-01T18:42:58.160Z,2.10
2018-02-01T18:45:26.389Z,1.67
2018-02-01T18:47:53.914Z,1.60
2018-02-01T18:50:21.417Z,1.70
2018-02-01T18:52:48.873Z,2.30
2018-02-01T18:55:16.342Z,2.58
2018-02-01T18:57:43.813Z,1.85
2018-02-01T19:00:11.347Z,2.25
2018-02-01T19:02:38.922Z,1.90
2018-02-01T19:05:06.409Z,1.65
2018-02-01T19:07:33.876Z,1.90
2018-02-01T19:10:01.309Z,1.95
2018-02-01T19:12:28.796Z,1.30
2018-02-01T19:14:56.291Z,1.73
2018-02-01T19:17:23.832Z,1.65
2018-02-01T19:19:51.332Z,1.70
2018-02-01T19:22:19.605Z,2.00
2018-02-01T19:24:47.025Z,1.80
2018-02-01T19:27:14.487Z,1.85
2018-02-01T19:29:41.965Z,1.30
2018-02-01T19:32:15.114Z,1.30
2018-02-01T19:34:42.615Z,1.40
2018-02-01T19:37:10.066Z,1.75
2018-02-01T19:39:37.543Z,1.23
2018-02-01T19:42:05.065Z,1.25
2018-02-01T19:44:32.550Z,1.62
2018-02-01T19:47:00.819Z,1.90
2018-02-01T19:49:28.358Z,2.25
2018-02-01T19:51:55.827Z,1.60
2018-02-01T19:54:23.292Z,1.95
2018-02-01T19:56:51.550Z,2.75
2018-02-01T19:59:19.026Z,2.30
2018-02-01T20:01:46.467Z,2.30
2018-02-01T20:04:14.647Z,1.70
2018-02-01T20:06:42.114Z,1.77
2018-02-01T20:09:09.573Z,2.15
2018-02-01T20:11:37.843Z,1.92
2018-02-01T20:14:05.300Z,1.70
2018-02-01T20:16:32.782Z,2.10
2018-02-01T20:19:00.236Z,1.83
2018-02-01T20:21:27.763Z,1.30
2018-02-01T20:23:55.319Z,2.05
2018-02-01T20:26:23.547Z,1.75
2018-02-01T20:28:51.100Z,1.98
2018-02-01T20:31:19.357Z,1.92
2018-02-01T20:33:46.828Z,2.28
2018-02-01T20:36:14.266Z,2.05
2018-02-01T20:38:41.737Z,1.87
2018-02-01T20:41:09.300Z,2.40
2018-02-01T20:43:36.780Z,2.95
2018-02-01T20:46:08.601Z,1.92
2018-02-01T20:48:36.128Z,2.75
2018-02-01T20:51:04.380Z,2.53
2018-02-01T20:53:36.303Z,2.55
2018-02-01T20:56:03.850Z,2.50
2018-02-01T20:58:31.775Z,2.95
2018-02-01T21:00:59.993Z,2.58
2018-02-01T21:03:27.456Z,3.40
2018-02-01T21:05:54.921Z,2.97
2018-02-01T21:08:22.443Z,2.37
2018-02-01T21:10:49.920Z,3.40
2018-02-01T21:13:17.383Z,2.55
2018-02-01T21:15:44.845Z,3.12
2018-02-01T21:18:12.286Z,2.30
2018-02-01T21:20:39.798Z,2.28
2018-02-01T21:23:07.280Z,2.28
2018-02-01T21:25:35.560Z,2.70
2018-02-01T21:28:03.050Z,2.22
2018-02-01T21:30:30.549Z,2.45
2018-02-01T21:32:58.009Z,2.50
2018-02-01T21:35:29.714Z,2.45
2018-02-01T21:37:57.149Z,3.25
2018-02-01T21:40:24.646Z,2.62
2018-02-01T21:42:52.671Z,2.53
2018-02-01T21:45:20.256Z,2.70
2018-02-01T21:47:47.759Z,2.80
2018-02-01T21:50:16.709Z,2.80
2018-02-01T21:52:45.005Z,2.72
2018-02-01T21:55:12.482Z,2.90
2018-02-01T21:57:40.045Z,3.15
2018-02-01T22:00:07.520Z,2.70
2018-02-01T22:02:35.824Z,2.45
2018-02-01T22:05:03.296Z,3.60
2018-02-01T22:07:30.852Z,3.15
2018-02-01T22:09:58.411Z,3.17
2018-02-01T22:12:25.899Z,2.70
2018-02-01T22:14:53.395Z,2.72
2018-02-01T22:17:20.977Z,2.65
2018-02-01T22:19:48.422Z,2.87
2018-02-01T22:22:15.889Z,2.90
2018-02-01T22:24:43.356Z,3.17
2018-02-01T22:27:11.410Z,3.22
2018-02-01T22:29:38.859Z,3.85
2018-02-01T22:32:06.302Z,3.37
2018-02-01T22:34:33.768Z,3.15
2018-02-01T22:37:01.265Z,3.15
2018-02-01T22:39:28.774Z,3.05
2018-02-01T22:41:56.256Z,2.95
2018-02-01T22:44:23.689Z,2.83
2018-02-01T22:46:51.160Z,2.80
2018-02-01T22:49:18.602Z,3.22
2018-02-01T22:51:46.071Z,3.10
2018-02-01T22:54:13.578Z,3.20
2018-02-01T22:56:41.108Z,3.78
2018-02-01T22:59:08.617Z,3.25
2018-02-01T23:01:36.124Z,3.30
2018-02-01T23:04:03.577Z,2.95
2018-02-01T23:06:31.031Z,2.97
2018-02-01T23:08:58.575Z,3.40
2018-02-01T23:11:26.033Z,3.83
2018-02-01T23:13:53.525Z,3.40
2018-02-01T23:16:20.944Z,2.85
2018-02-01T23:18:48.428Z,3.87
2018-02-01T23:21:15.859Z,3.37
2018-02-01T23:23:47.308Z,3.20
2018-02-01T23:26:14.784Z,3.75
2018-02-01T23:28:42.219Z,2.87
2018-02-01T23:31:09.694Z,4.65
2018-02-01T23:33:37.313Z,4.25
2018-02-01T23:36:04.791Z,3.67
2018-02-01T23:38:32.238Z,3.65
2018-02-01T23:40:59.689Z,4.03
2018-02-01T23:43:27.152Z,3.70
2018-02-01T23:45:54.627Z,4.18
2018-02-01T23:48:22.076Z,4.12
2018-02-01T23:50:49.540Z,4.43
2018-02-01T23:53:17.490Z,4.65
2018-02-01T23:55:44.932Z,5.32
2018-02-01T23:58:12.396Z,4.40
